sensor_id;sensor_type;location;lat;lon;timestamp;P1;durP1;ratioP1;P2;durP2;ratioP2
22778;SDS011;11556;51.194;3.800;2023-11-22T00:01:52;31.00;;;17.05;;
22778;SDS011;11556;51.194;3.800;2023-11-22T00:04:18;33.95;;;17.85;;
22778;SDS011;11556;51.194;3.800;2023-11-22T00:06:45;32.75;;;17.27;;
22778;SDS011;11556;51.194;3.800;2023-11-22T00:09:10;30.95;;;16.52;;
22778;SDS011;11556;51.194;3.800;2023-11-22T00:11:36;30.08;;;15.70;;
22778;SDS011;11556;51.194;3.800;2023-11-22T00:14:02;28.15;;;16.10;;
22778;SDS011;11556;51.194;3.800;2023-11-22T00:16:28;29.55;;;16.20;;
22778;SDS011;11556;51.194;3.800;2023-11-22T00:18:55;28.98;;;15.05;;
22778;SDS011;11556;51.194;3.800;2023-11-22T00:21:20;32.35;;;16.42;;
22778;SDS011;11556;51.194;3.800;2023-11-22T00:23:46;32.92;;;16.55;;
22778;SDS011;11556;51.194;3.800;2023-11-22T00:26:12;29.70;;;15.68;;
22778;SDS011;11556;51.194;3.800;2023-11-22T00:28:37;27.25;;;15.60;;
22778;SDS011;11556;51.194;3.800;2023-11-22T00:31:03;33.17;;;16.90;;
22778;SDS011;11556;51.194;3.800;2023-11-22T00:33:28;31.20;;;16.02;;
22778;SDS011;11556;51.194;3.800;2023-11-22T00:35:56;33.65;;;17.08;;
22778;SDS011;11556;51.194;3.800;2023-11-22T00:38:23;36.25;;;18.20;;
22778;SDS011;11556;51.194;3.800;2023-11-22T00:40:49;33.75;;;17.88;;
22778;SDS011;11556;51.194;3.800;2023-11-22T00:43:15;38.97;;;19.02;;
22778;SDS011;11556;51.194;3.800;2023-11-22T00:45:40;40.22;;;20.90;;
22778;SDS011;11556;51.194;3.800;2023-11-22T00:48:06;40.05;;;19.77;;
22778;SDS011;11556;51.194;3.800;2023-11-22T00:50:32;39.42;;;19.67;;
22778;SDS011;11556;51.194;3.800;2023-11-22T00:52:58;38.35;;;18.63;;
22778;SDS011;11556;51.194;3.800;2023-11-22T00:55:23;37.33;;;18.33;;
22778;SDS011;11556;51.194;3.800;2023-11-22T00:57:49;41.13;;;19.02;;
22778;SDS011;11556;51.194;3.800;2023-11-22T01:00:15;41.55;;;18.90;;
22778;SDS011;11556;51.194;3.800;2023-11-22T01:02:41;41.65;;;19.40;;
22778;SDS011;11556;51.194;3.800;2023-11-22T01:05:09;41.22;;;19.27;;
22778;SDS011;11556;51.194;3.800;2023-11-22T01:07:38;43.00;;;19.10;;
22778;SDS011;11556;51.194;3.800;2023-11-22T01:10:04;43.38;;;20.25;;
22778;SDS011;11556;51.194;3.800;2023-11-22T01:12:30;40.42;;;19.67;;
22778;SDS011;11556;51.194;3.800;2023-11-22T01:14:56;41.40;;;19.77;;
22778;SDS011;11556;51.194;3.800;2023-11-22T01:17:22;41.45;;;19.60;;
22778;SDS011;11556;51.194;3.800;2023-11-22T01:19:48;36.78;;;18.17;;
22778;SDS011;11556;51.194;3.800;2023-11-22T01:22:15;43.47;;;19.13;;
22778;SDS011;11556;51.194;3.800;2023-11-22T01:24:42;43.30;;;19.52;;
22778;SDS011;11556;51.194;3.800;2023-11-22T01:27:08;40.35;;;20.10;;
22778;SDS011;11556;51.194;3.800;2023-11-22T01:29:33;37.50;;;19.65;;
22778;SDS011;11556;51.194;3.800;2023-11-22T01:32:00;41.80;;;19.45;;
22778;SDS011;11556;51.194;3.800;2023-11-22T01:34:25;40.60;;;19.73;;
22778;SDS011;11556;51.194;3.800;2023-11-22T01:36:51;48.33;;;19.15;;
22778;SDS011;11556;51.194;3.800;2023-11-22T01:39:17;39.55;;;18.73;;
22778;SDS011;11556;51.194;3.800;2023-11-22T01:41:45;39.92;;;19.80;;
22778;SDS011;11556;51.194;3.800;2023-11-22T01:44:11;42.40;;;19.75;;
22778;SDS011;11556;51.194;3.800;2023-11-22T01:46:37;35.13;;;18.55;;
22778;SDS011;11556;51.194;3.800;2023-11-22T01:49:03;38.85;;;18.48;;
22778;SDS011;11556;51.194;3.800;2023-11-22T01:51:29;38.53;;;19.35;;
22778;SDS011;11556;51.194;3.800;2023-11-22T01:53:55;39.03;;;18.77;;
22778;SDS011;11556;51.194;3.800;2023-11-22T01:56:23;41.67;;;20.65;;
22778;SDS011;11556;51.194;3.800;2023-11-22T01:58:51;43.55;;;19.30;;
22778;SDS011;11556;51.194;3.800;2023-11-22T02:01:19;32.38;;;16.83;;
22778;SDS011;11556;51.194;3.800;2023-11-22T02:03:45;39.55;;;18.63;;
22778;SDS011;11556;51.194;3.800;2023-11-22T02:06:14;39.63;;;19.30;;
22778;SDS011;11556;51.194;3.800;2023-11-22T02:08:43;42.10;;;18.73;;
22778;SDS011;11556;51.194;3.800;2023-11-22T02:11:09;37.78;;;17.45;;
22778;SDS011;11556;51.194;3.800;2023-11-22T02:13:35;34.47;;;17.10;;
22778;SDS011;11556;51.194;3.800;2023-11-22T02:16:01;41.67;;;19.25;;
22778;SDS011;11556;51.194;3.800;2023-11-22T02:18:28;38.10;;;19.20;;
22778;SDS011;11556;51.194;3.800;2023-11-22T02:20:54;38.17;;;18.55;;
22778;SDS011;11556;51.194;3.800;2023-11-22T02:23:20;33.50;;;18.08;;
22778;SDS011;11556;51.194;3.800;2023-11-22T02:25:45;34.63;;;17.98;;
22778;SDS011;11556;51.194;3.800;2023-11-22T02:28:11;34.65;;;17.85;;
22778;SDS011;11556;51.194;3.800;2023-11-22T02:30:37;40.42;;;18.52;;
22778;SDS011;11556;51.194;3.800;2023-11-22T02:33:03;39.22;;;17.45;;
22778;SDS011;11556;51.194;3.800;2023-11-22T02:35:32;34.90;;;17.70;;
22778;SDS011;11556;51.194;3.800;2023-11-22T02:37:58;35.75;;;18.27;;
22778;SDS011;11556;51.194;3.800;2023-11-22T02:40:27;39.53;;;17.83;;
22778;SDS011;11556;51.194;3.800;2023-11-22T02:42:55;33.85;;;17.73;;
22778;SDS011;11556;51.194;3.800;2023-11-22T02:45:23;37.15;;;17.58;;
22778;SDS011;11556;51.194;3.800;2023-11-22T02:47:53;34.40;;;17.45;;
22778;SDS011;11556;51.194;3.800;2023-11-22T02:50:19;31.95;;;17.33;;
22778;SDS011;11556;51.194;3.800;2023-11-22T02:52:44;33.15;;;17.92;;
22778;SDS011;11556;51.194;3.800;2023-11-22T02:55:10;38.67;;;18.23;;
22778;SDS011;11556;51.194;3.800;2023-11-22T02:57:39;32.53;;;17.33;;
22778;SDS011;11556;51.194;3.800;2023-11-22T03:00:05;33.88;;;16.63;;
22778;SDS011;11556;51.194;3.800;2023-11-22T03:02:35;33.95;;;16.77;;
22778;SDS011;11556;51.194;3.800;2023-11-22T03:05:02;34.28;;;17.75;;
22778;SDS011;11556;51.194;3.800;2023-11-22T03:07:29;30.25;;;16.20;;
22778;SDS011;11556;51.194;3.800;2023-11-22T03:09:55;36.05;;;19.25;;
22778;SDS011;11556;51.194;3.800;2023-11-22T03:12:20;34.25;;;18.55;;
22778;SDS011;11556;51.194;3.800;2023-11-22T03:14:46;35.83;;;19.40;;
22778;SDS011;11556;51.194;3.800;2023-11-22T03:17:12;38.70;;;22.13;;
22778;SDS011;11556;51.194;3.800;2023-11-22T03:19:40;35.55;;;19.50;;
22778;SDS011;11556;51.194;3.800;2023-11-22T03:22:06;39.88;;;20.73;;
22778;SDS011;11556;51.194;3.800;2023-11-22T03:24:33;38.95;;;19.65;;
22778;SDS011;11556;51.194;3.800;2023-11-22T03:27:04;36.20;;;18.45;;
22778;SDS011;11556;51.194;3.800;2023-11-22T03:29:31;35.88;;;18.48;;
22778;SDS011;11556;51.194;3.800;2023-11-22T03:31:57;41.50;;;19.50;;
22778;SDS011;11556;51.194;3.800;2023-11-22T03:34:23;38.05;;;19.13;;
22778;SDS011;11556;51.194;3.800;2023-11-22T03:36:48;37.20;;;19.00;;
22778;SDS011;11556;51.194;3.800;2023-11-22T03:39:15;39.33;;;18.90;;
22778;SDS011;11556;51.194;3.800;2023-11-22T03:41:41;39.28;;;18.48;;
22778;SDS011;11556;51.194;3.800;2023-11-22T03:44:07;41.53;;;19.17;;
22778;SDS011;11556;51.194;3.800;2023-11-22T03:46:36;38.00;;;18.08;;
22778;SDS011;11556;51.194;3.800;2023-11-22T03:49:02;42.38;;;18.30;;
22778;SDS011;11556;51.194;3.800;2023-11-22T03:51:29;40.22;;;18.83;;
22778;SDS011;11556;51.194;3.800;2023-11-22T03:53:54;40.00;;;19.73;;
22778;SDS011;11556;51.194;3.800;2023-11-22T03:56:20;40.17;;;18.02;;
22778;SDS011;11556;51.194;3.800;2023-11-22T03:58:46;42.80;;;19.17;;
22778;SDS011;11556;51.194;3.800;2023-11-22T04:01:13;45.38;;;20.05;;
22778;SDS011;11556;51.194;3.800;2023-11-22T04:03:39;53.50;;;21.95;;
22778;SDS011;11556;51.194;3.800;2023-11-22T04:06:05;52.95;;;20.50;;
22778;SDS011;11556;51.194;3.800;2023-11-22T04:08:31;49.13;;;21.15;;
22778;SDS011;11556;51.194;3.800;2023-11-22T04:10:56;47.35;;;21.27;;
22778;SDS011;11556;51.194;3.800;2023-11-22T04:13:22;56.25;;;21.92;;
22778;SDS011;11556;51.194;3.800;2023-11-22T04:15:49;49.30;;;20.95;;
22778;SDS011;11556;51.194;3.800;2023-11-22T04:18:15;46.45;;;20.38;;
22778;SDS011;11556;51.194;3.800;2023-11-22T04:20:41;52.90;;;21.98;;
22778;SDS011;11556;51.194;3.800;2023-11-22T04:23:07;55.88;;;21.63;;
22778;SDS011;11556;51.194;3.800;2023-11-22T04:25:35;63.20;;;23.17;;
22778;SDS011;11556;51.194;3.800;2023-11-22T04:28:04;56.25;;;23.13;;
22778;SDS011;11556;51.194;3.800;2023-11-22T04:30:30;65.03;;;24.35;;
22778;SDS011;11556;51.194;3.800;2023-11-22T04:32:55;64.25;;;24.00;;
22778;SDS011;11556;51.194;3.800;2023-11-22T04:35:21;62.58;;;23.20;;
22778;SDS011;11556;51.194;3.800;2023-11-22T04:37:47;60.33;;;23.58;;
22778;SDS011;11556;51.194;3.800;2023-11-22T04:40:13;60.00;;;23.63;;
22778;SDS011;11556;51.194;3.800;2023-11-22T04:42:39;58.97;;;22.75;;
22778;SDS011;11556;51.194;3.800;2023-11-22T04:45:05;66.50;;;24.25;;
22778;SDS011;11556;51.194;3.800;2023-11-22T04:47:31;61.22;;;23.42;;
22778;SDS011;11556;51.194;3.800;2023-11-22T04:49:57;53.13;;;21.73;;
22778;SDS011;11556;51.194;3.800;2023-11-22T04:52:23;60.00;;;22.80;;
22778;SDS011;11556;51.194;3.800;2023-11-22T04:54:48;68.40;;;23.48;;
22778;SDS011;11556;51.194;3.800;2023-11-22T04:57:14;57.72;;;23.27;;
22778;SDS011;11556;51.194;3.800;2023-11-22T04:59:40;60.03;;;23.40;;
22778;SDS011;11556;51.194;3.800;2023-11-22T05:02:06;59.85;;;23.65;;
22778;SDS011;11556;51.194;3.800;2023-11-22T05:04:32;57.92;;;22.35;;
22778;SDS011;11556;51.194;3.800;2023-11-22T05:06:58;66.63;;;25.15;;
22778;SDS011;11556;51.194;3.800;2023-11-22T05:09:23;61.42;;;23.50;;
22778;SDS011;11556;51.194;3.800;2023-11-22T05:11:49;63.40;;;23.60;;
22778;SDS011;11556;51.194;3.800;2023-11-22T05:14:17;71.65;;;26.50;;
22778;SDS011;11556;51.194;3.800;2023-11-22T05:16:42;66.38;;;24.85;;
22778;SDS011;11556;51.194;3.800;2023-11-22T05:19:08;65.88;;;24.85;;
22778;SDS011;11556;51.194;3.800;2023-11-22T05:21:33;67.00;;;25.70;;
22778;SDS011;11556;51.194;3.800;2023-11-22T05:23:59;74.85;;;26.65;;
22778;SDS011;11556;51.194;3.800;2023-11-22T05:26:25;67.20;;;25.15;;
22778;SDS011;11556;51.194;3.800;2023-11-22T05:28:51;70.18;;;26.48;;
22778;SDS011;11556;51.194;3.800;2023-11-22T05:31:19;70.75;;;26.13;;
22778;SDS011;11556;51.194;3.800;2023-11-22T05:33:45;68.25;;;25.10;;
22778;SDS011;11556;51.194;3.800;2023-11-22T05:36:11;65.32;;;24.85;;
22778;SDS011;11556;51.194;3.800;2023-11-22T05:38:39;70.20;;;25.85;;
22778;SDS011;11556;51.194;3.800;2023-11-22T05:41:04;68.35;;;26.17;;
22778;SDS011;11556;51.194;3.800;2023-11-22T05:43:30;64.28;;;25.33;;
22778;SDS011;11556;51.194;3.800;2023-11-22T05:45:56;64.18;;;24.45;;
22778;SDS011;11556;51.194;3.800;2023-11-22T05:48:22;68.35;;;25.13;;
22778;SDS011;11556;51.194;3.800;2023-11-22T05:50:47;63.97;;;25.35;;
22778;SDS011;11556;51.194;3.800;2023-11-22T05:53:13;60.78;;;23.83;;
22778;SDS011;11556;51.194;3.800;2023-11-22T05:55:47;55.03;;;24.08;;
22778;SDS011;11556;51.194;3.800;2023-11-22T05:58:13;60.42;;;23.23;;
22778;SDS011;11556;51.194;3.800;2023-11-22T06:00:45;61.63;;;24.80;;
22778;SDS011;11556;51.194;3.800;2023-11-22T06:03:12;60.15;;;23.80;;
22778;SDS011;11556;51.194;3.800;2023-11-22T06:05:39;63.90;;;25.05;;
22778;SDS011;11556;51.194;3.800;2023-11-22T06:08:05;68.03;;;25.63;;
22778;SDS011;11556;51.194;3.800;2023-11-22T06:10:31;59.17;;;23.90;;
22778;SDS011;11556;51.194;3.800;2023-11-22T06:12:56;61.30;;;24.15;;
22778;SDS011;11556;51.194;3.800;2023-11-22T06:15:22;61.08;;;23.90;;
22778;SDS011;11556;51.194;3.800;2023-11-22T06:17:48;58.97;;;23.13;;
22778;SDS011;11556;51.194;3.800;2023-11-22T06:20:14;60.65;;;24.27;;
22778;SDS011;11556;51.194;3.800;2023-11-22T06:22:41;63.17;;;23.38;;
22778;SDS011;11556;51.194;3.800;2023-11-22T06:25:13;55.80;;;22.65;;
22778;SDS011;11556;51.194;3.800;2023-11-22T06:27:40;84.47;;;33.72;;
22778;SDS011;11556;51.194;3.800;2023-11-22T06:30:06;71.72;;;32.80;;
22778;SDS011;11556;51.194;3.800;2023-11-22T06:32:34;66.93;;;31.23;;
22778;SDS011;11556;51.194;3.800;2023-11-22T06:34:59;66.05;;;27.50;;
22778;SDS011;11556;51.194;3.800;2023-11-22T06:37:25;73.38;;;29.33;;
22778;SDS011;11556;51.194;3.800;2023-11-22T06:39:51;67.43;;;27.75;;
22778;SDS011;11556;51.194;3.800;2023-11-22T06:42:17;79.63;;;28.65;;
22778;SDS011;11556;51.194;3.800;2023-11-22T06:44:44;76.05;;;29.52;;
22778;SDS011;11556;51.194;3.800;2023-11-22T06:47:12;68.35;;;26.75;;
22778;SDS011;11556;51.194;3.800;2023-11-22T06:49:38;74.57;;;28.67;;
22778;SDS011;11556;51.194;3.800;2023-11-22T06:52:04;79.57;;;28.95;;
22778;SDS011;11556;51.194;3.800;2023-11-22T06:54:30;72.15;;;27.92;;
22778;SDS011;11556;51.194;3.800;2023-11-22T06:56:56;70.65;;;26.20;;
22778;SDS011;11556;51.194;3.800;2023-11-22T06:59:22;67.03;;;25.98;;
22778;SDS011;11556;51.194;3.800;2023-11-22T07:01:47;79.47;;;29.65;;
22778;SDS011;11556;51.194;3.800;2023-11-22T07:04:13;77.93;;;27.58;;
22778;SDS011;11556;51.194;3.800;2023-11-22T07:06:39;74.60;;;26.95;;
22778;SDS011;11556;51.194;3.800;2023-11-22T07:09:05;66.85;;;26.70;;
22778;SDS011;11556;51.194;3.800;2023-11-22T07:11:30;76.03;;;27.02;;
22778;SDS011;11556;51.194;3.800;2023-11-22T07:13:56;67.85;;;26.17;;
22778;SDS011;11556;51.194;3.800;2023-11-22T07:16:25;71.45;;;27.40;;
22778;SDS011;11556;51.194;3.800;2023-11-22T07:18:51;79.28;;;29.33;;
22778;SDS011;11556;51.194;3.800;2023-11-22T07:21:16;81.18;;;29.27;;
22778;SDS011;11556;51.194;3.800;2023-11-22T07:23:42;74.30;;;28.77;;
22778;SDS011;11556;51.194;3.800;2023-11-22T07:26:10;83.65;;;29.73;;
22778;SDS011;11556;51.194;3.800;2023-11-22T07:28:35;72.32;;;27.15;;
22778;SDS011;11556;51.194;3.800;2023-11-22T07:31:02;72.22;;;27.70;;
22778;SDS011;11556;51.194;3.800;2023-11-22T07:33:30;78.22;;;29.00;;
22778;SDS011;11556;51.194;3.800;2023-11-22T07:35:56;87.57;;;31.05;;
22778;SDS011;11556;51.194;3.800;2023-11-22T07:38:23;84.88;;;30.83;;
22778;SDS011;11556;51.194;3.800;2023-11-22T07:40:49;85.57;;;30.08;;
22778;SDS011;11556;51.194;3.800;2023-11-22T07:43:16;90.60;;;30.95;;
22778;SDS011;11556;51.194;3.800;2023-11-22T07:45:42;89.75;;;32.22;;
22778;SDS011;11556;51.194;3.800;2023-11-22T07:48:08;84.47;;;31.80;;
22778;SDS011;11556;51.194;3.800;2023-11-22T07:50:37;89.05;;;31.83;;
22778;SDS011;11556;51.194;3.800;2023-11-22T07:53:04;83.57;;;29.35;;
22778;SDS011;11556;51.194;3.800;2023-11-22T07:55:30;85.63;;;30.98;;
22778;SDS011;11556;51.194;3.800;2023-11-22T07:57:55;82.95;;;31.17;;
22778;SDS011;11556;51.194;3.800;2023-11-22T08:00:22;79.05;;;29.95;;
22778;SDS011;11556;51.194;3.800;2023-11-22T08:02:48;80.20;;;30.48;;
22778;SDS011;11556;51.194;3.800;2023-11-22T08:05:14;74.68;;;29.17;;
22778;SDS011;11556;51.194;3.800;2023-11-22T08:07:41;86.50;;;31.25;;
22778;SDS011;11556;51.194;3.800;2023-11-22T08:10:09;86.13;;;30.65;;
22778;SDS011;11556;51.194;3.800;2023-11-22T08:12:42;84.63;;;31.27;;
22778;SDS011;11556;51.194;3.800;2023-11-22T08:15:09;73.47;;;30.05;;
22778;SDS011;11556;51.194;3.800;2023-11-22T08:17:37;85.75;;;31.40;;
22778;SDS011;11556;51.194;3.800;2023-11-22T08:20:04;74.43;;;30.02;;
22778;SDS011;11556;51.194;3.800;2023-11-22T08:22:31;85.30;;;31.33;;
22778;SDS011;11556;51.194;3.800;2023-11-22T08:25:00;90.63;;;34.55;;
22778;SDS011;11556;51.194;3.800;2023-11-22T08:27:29;85.93;;;33.28;;
22778;SDS011;11556;51.194;3.800;2023-11-22T08:29:56;87.00;;;34.45;;
22778;SDS011;11556;51.194;3.800;2023-11-22T08:32:21;79.55;;;31.65;;
22778;SDS011;11556;51.194;3.800;2023-11-22T08:34:50;74.70;;;32.30;;
22778;SDS011;11556;51.194;3.800;2023-11-22T08:37:16;81.72;;;31.60;;
22778;SDS011;11556;51.194;3.800;2023-11-22T08:39:42;80.30;;;31.67;;
22778;SDS011;11556;51.194;3.800;2023-11-22T08:42:08;77.07;;;31.17;;
22778;SDS011;11556;51.194;3.800;2023-11-22T08:44:37;66.93;;;31.10;;
22778;SDS011;11556;51.194;3.800;2023-11-22T08:47:03;68.75;;;28.60;;
22778;SDS011;11556;51.194;3.800;2023-11-22T08:49:29;64.18;;;28.10;;
22778;SDS011;11556;51.194;3.800;2023-11-22T08:51:56;65.82;;;27.20;;
22778;SDS011;11556;51.194;3.800;2023-11-22T08:54:21;62.42;;;28.70;;
22778;SDS011;11556;51.194;3.800;2023-11-22T08:56:47;55.10;;;27.20;;
22778;SDS011;11556;51.194;3.800;2023-11-22T08:59:13;53.13;;;25.65;;
22778;SDS011;11556;51.194;3.800;2023-11-22T09:01:41;53.40;;;26.25;;
22778;SDS011;11556;51.194;3.800;2023-11-22T09:04:10;41.53;;;23.98;;
22778;SDS011;11556;51.194;3.800;2023-11-22T09:06:36;46.20;;;24.75;;
22778;SDS011;11556;51.194;3.800;2023-11-22T09:09:02;46.20;;;23.05;;
22778;SDS011;11556;51.194;3.800;2023-11-22T09:11:28;44.35;;;23.45;;
22778;SDS011;11556;51.194;3.800;2023-11-22T09:13:54;40.08;;;22.33;;
22778;SDS011;11556;51.194;3.800;2023-11-22T09:16:22;36.90;;;20.58;;
22778;SDS011;11556;51.194;3.800;2023-11-22T09:18:50;35.45;;;19.92;;
22778;SDS011;11556;51.194;3.800;2023-11-22T09:21:16;33.15;;;21.20;;
22778;SDS011;11556;51.194;3.800;2023-11-22T09:23:44;36.15;;;20.52;;
22778;SDS011;11556;51.194;3.800;2023-11-22T09:26:12;33.70;;;20.98;;
22778;SDS011;11556;51.194;3.800;2023-11-22T09:28:39;36.42;;;20.65;;
22778;SDS011;11556;51.194;3.800;2023-11-22T09:31:05;30.02;;;19.33;;
22778;SDS011;11556;51.194;3.800;2023-11-22T09:33:31;32.65;;;20.55;;
22778;SDS011;11556;51.194;3.800;2023-11-22T09:35:57;36.95;;;21.35;;
22778;SDS011;11556;51.194;3.800;2023-11-22T09:38:28;67.13;;;37.47;;
22778;SDS011;11556;51.194;3.800;2023-11-22T09:40:53;33.63;;;21.85;;
22778;SDS011;11556;51.194;3.800;2023-11-22T09:43:19;35.35;;;21.20;;
22778;SDS011;11556;51.194;3.800;2023-11-22T09:45:45;35.70;;;22.80;;
22778;SDS011;11556;51.194;3.800;2023-11-22T09:48:15;42.85;;;26.50;;
22778;SDS011;11556;51.194;3.800;2023-11-22T09:53:32;35.15;;;21.42;;
22778;SDS011;11556;51.194;3.800;2023-11-22T09:56:00;37.30;;;21.13;;
22778;SDS011;11556;51.194;3.800;2023-11-22T09:58:29;35.15;;;21.40;;
22778;SDS011;11556;51.194;3.800;2023-11-22T10:00:57;32.22;;;20.45;;
22778;SDS011;11556;51.194;3.800;2023-11-22T10:03:26;35.55;;;21.73;;
22778;SDS011;11556;51.194;3.800;2023-11-22T10:05:51;31.33;;;18.92;;
22778;SDS011;11556;51.194;3.800;2023-11-22T10:08:18;37.95;;;21.30;;
22778;SDS011;11556;51.194;3.800;2023-11-22T10:10:46;32.70;;;20.70;;
22778;SDS011;11556;51.194;3.800;2023-11-22T10:13:16;36.65;;;20.77;;
22778;SDS011;11556;51.194;3.800;2023-11-22T10:15:45;32.35;;;20.40;;
22778;SDS011;11556;51.194;3.800;2023-11-22T10:18:12;30.60;;;20.27;;
22778;SDS011;11556;51.194;3.800;2023-11-22T10:20:40;28.33;;;19.45;;
22778;SDS011;11556;51.194;3.800;2023-11-22T10:23:11;26.90;;;19.33;;
22778;SDS011;11556;51.194;3.800;2023-11-22T10:25:49;34.00;;;21.10;;
22778;SDS011;11556;51.194;3.800;2023-11-22T10:28:20;37.58;;;20.38;;
22778;SDS011;11556;51.194;3.800;2023-11-22T10:30:49;38.73;;;20.17;;
22778;SDS011;11556;51.194;3.800;2023-11-22T10:33:16;37.97;;;17.65;;
22778;SDS011;11556;51.194;3.800;2023-11-22T10:35:46;32.60;;;18.90;;
22778;SDS011;11556;51.194;3.800;2023-11-22T10:38:16;40.55;;;19.83;;
22778;SDS011;11556;51.194;3.800;2023-11-22T10:40:43;37.35;;;20.52;;
22778;SDS011;11556;51.194;3.800;2023-11-22T10:43:13;32.42;;;19.60;;
22778;SDS011;11556;51.194;3.800;2023-11-22T10:45:39;35.08;;;21.08;;
22778;SDS011;11556;51.194;3.800;2023-11-22T10:48:09;36.85;;;19.45;;
22778;SDS011;11556;51.194;3.800;2023-11-22T10:50:36;38.58;;;22.13;;
22778;SDS011;11556;51.194;3.800;2023-11-22T10:53:02;32.35;;;20.40;;
22778;SDS011;11556;51.194;3.800;2023-11-22T10:55:32;33.75;;;21.48;;
22778;SDS011;11556;51.194;3.800;2023-11-22T10:58:01;35.25;;;21.17;;
22778;SDS011;11556;51.194;3.800;2023-11-22T11:00:28;31.88;;;21.10;;
22778;SDS011;11556;51.194;3.800;2023-11-22T11:02:59;35.25;;;18.92;;
22778;SDS011;11556;51.194;3.800;2023-11-22T11:05:30;35.75;;;20.30;;
22778;SDS011;11556;51.194;3.800;2023-11-22T11:08:07;35.22;;;18.38;;
22778;SDS011;11556;51.194;3.800;2023-11-22T11:10:41;33.42;;;20.02;;
22778;SDS011;11556;51.194;3.800;2023-11-22T11:13:07;33.83;;;20.45;;
22778;SDS011;11556;51.194;3.800;2023-11-22T11:15:34;30.55;;;18.95;;
22778;SDS011;11556;51.194;3.800;2023-11-22T11:18:01;28.20;;;19.52;;
22778;SDS011;11556;51.194;3.800;2023-11-22T11:20:32;35.35;;;20.05;;
22778;SDS011;11556;51.194;3.800;2023-11-22T11:23:14;30.85;;;19.67;;
22778;SDS011;11556;51.194;3.800;2023-11-22T11:25:41;34.33;;;20.40;;
22778;SDS011;11556;51.194;3.800;2023-11-22T11:28:11;30.23;;;18.90;;
22778;SDS011;11556;51.194;3.800;2023-11-22T11:30:47;31.70;;;18.70;;
22778;SDS011;11556;51.194;3.800;2023-11-22T11:33:15;29.83;;;19.02;;
22778;SDS011;11556;51.194;3.800;2023-11-22T11:38:15;28.05;;;18.10;;
22778;SDS011;11556;51.194;3.800;2023-11-22T11:46:15;34.72;;;19.38;;
22778;SDS011;11556;51.194;3.800;2023-11-22T11:48:45;30.48;;;19.25;;
22778;SDS011;11556;51.194;3.800;2023-11-22T11:51:16;31.20;;;20.33;;
22778;SDS011;11556;51.194;3.800;2023-11-22T11:53:43;37.10;;;22.05;;
22778;SDS011;11556;51.194;3.800;2023-11-22T11:56:10;36.75;;;21.73;;
22778;SDS011;11556;51.194;3.800;2023-11-22T11:58:36;35.00;;;21.15;;
22778;SDS011;11556;51.194;3.800;2023-11-22T12:01:03;33.20;;;20.10;;
22778;SDS011;11556;51.194;3.800;2023-11-22T12:03:29;28.00;;;18.60;;
22778;SDS011;11556;51.194;3.800;2023-11-22T12:05:55;29.52;;;19.05;;
22778;SDS011;11556;51.194;3.800;2023-11-22T12:08:21;35.03;;;21.52;;
22778;SDS011;11556;51.194;3.800;2023-11-22T12:10:47;30.25;;;19.13;;
22778;SDS011;11556;51.194;3.800;2023-11-22T12:13:20;28.48;;;18.23;;
22778;SDS011;11556;51.194;3.800;2023-11-22T12:15:49;28.45;;;16.98;;
22778;SDS011;11556;51.194;3.800;2023-11-22T12:20:53;25.38;;;15.73;;
22778;SDS011;11556;51.194;3.800;2023-11-22T12:23:23;24.15;;;15.48;;
22778;SDS011;11556;51.194;3.800;2023-11-22T12:25:55;22.13;;;16.13;;
22778;SDS011;11556;51.194;3.800;2023-11-22T12:28:26;27.40;;;17.52;;
22778;SDS011;11556;51.194;3.800;2023-11-22T12:30:53;27.63;;;17.35;;
22778;SDS011;11556;51.194;3.800;2023-11-22T12:33:19;30.48;;;19.25;;
22778;SDS011;11556;51.194;3.800;2023-11-22T12:35:48;37.25;;;23.85;;
22778;SDS011;11556;51.194;3.800;2023-11-22T12:38:14;26.27;;;18.67;;
22778;SDS011;11556;51.194;3.800;2023-11-22T12:40:44;30.50;;;20.20;;
22778;SDS011;11556;51.194;3.800;2023-11-22T12:43:12;30.23;;;19.15;;
22778;SDS011;11556;51.194;3.800;2023-11-22T12:45:39;28.25;;;18.58;;
22778;SDS011;11556;51.194;3.800;2023-11-22T12:48:22;20.98;;;15.00;;
22778;SDS011;11556;51.194;3.800;2023-11-22T12:50:49;23.98;;;16.27;;
22778;SDS011;11556;51.194;3.800;2023-11-22T12:53:15;26.38;;;17.50;;
22778;SDS011;11556;51.194;3.800;2023-11-22T12:55:41;27.38;;;16.98;;
22778;SDS011;11556;51.194;3.800;2023-11-22T12:58:11;26.67;;;17.88;;
22778;SDS011;11556;51.194;3.800;2023-11-22T13:00:41;32.75;;;20.65;;
22778;SDS011;11556;51.194;3.800;2023-11-22T13:03:10;26.40;;;17.45;;
22778;SDS011;11556;51.194;3.800;2023-11-22T13:05:36;31.52;;;19.13;;
22778;SDS011;11556;51.194;3.800;2023-11-22T13:08:03;31.10;;;18.55;;
22778;SDS011;11556;51.194;3.800;2023-11-22T13:10:29;29.65;;;19.35;;
22778;SDS011;11556;51.194;3.800;2023-11-22T13:12:56;35.33;;;21.73;;
22778;SDS011;11556;51.194;3.800;2023-11-22T13:15:22;33.00;;;20.70;;
22778;SDS011;11556;51.194;3.800;2023-11-22T13:17:57;37.38;;;21.13;;
22778;SDS011;11556;51.194;3.800;2023-11-22T13:20:26;36.10;;;21.60;;
22778;SDS011;11556;51.194;3.800;2023-11-22T13:22:52;40.70;;;23.83;;
22778;SDS011;11556;51.194;3.800;2023-11-22T13:25:20;37.03;;;22.50;;
22778;SDS011;11556;51.194;3.800;2023-11-22T13:27:48;39.35;;;22.33;;
22778;SDS011;11556;51.194;3.800;2023-11-22T13:30:15;46.92;;;23.13;;
22778;SDS011;11556;51.194;3.800;2023-11-22T13:32:47;38.13;;;22.15;;
22778;SDS011;11556;51.194;3.800;2023-11-22T13:35:14;38.17;;;23.27;;
22778;SDS011;11556;51.194;3.800;2023-11-22T13:37:42;38.83;;;22.15;;
22778;SDS011;11556;51.194;3.800;2023-11-22T13:40:12;38.50;;;22.35;;
22778;SDS011;11556;51.194;3.800;2023-11-22T13:42:45;39.08;;;22.92;;
22778;SDS011;11556;51.194;3.800;2023-11-22T13:45:11;37.80;;;21.77;;
22778;SDS011;11556;51.194;3.800;2023-11-22T13:47:46;38.78;;;22.48;;
22778;SDS011;11556;51.194;3.800;2023-11-22T13:50:14;38.90;;;22.45;;
22778;SDS011;11556;51.194;3.800;2023-11-22T13:52:44;37.72;;;22.45;;
22778;SDS011;11556;51.194;3.800;2023-11-22T13:55:10;33.67;;;21.33;;
22778;SDS011;11556;51.194;3.800;2023-11-22T13:57:37;34.80;;;21.73;;
22778;SDS011;11556;51.194;3.800;2023-11-22T14:00:04;33.33;;;20.88;;
22778;SDS011;11556;51.194;3.800;2023-11-22T14:02:35;37.15;;;21.65;;
22778;SDS011;11556;51.194;3.800;2023-11-22T14:05:01;38.13;;;22.10;;
22778;SDS011;11556;51.194;3.800;2023-11-22T14:07:28;37.08;;;21.10;;
22778;SDS011;11556;51.194;3.800;2023-11-22T14:09:54;39.38;;;23.95;;
22778;SDS011;11556;51.194;3.800;2023-11-22T14:12:19;41.15;;;22.23;;
22778;SDS011;11556;51.194;3.800;2023-11-22T14:14:45;38.00;;;22.95;;
22778;SDS011;11556;51.194;3.800;2023-11-22T14:17:11;37.88;;;22.42;;
22778;SDS011;11556;51.194;3.800;2023-11-22T14:19:39;40.20;;;21.92;;
22778;SDS011;11556;51.194;3.800;2023-11-22T14:22:05;34.03;;;21.02;;
22778;SDS011;11556;51.194;3.800;2023-11-22T14:24:31;39.90;;;23.75;;
22778;SDS011;11556;51.194;3.800;2023-11-22T14:27:02;42.00;;;22.80;;
22778;SDS011;11556;51.194;3.800;2023-11-22T14:29:28;39.95;;;22.55;;
22778;SDS011;11556;51.194;3.800;2023-11-22T14:31:53;40.85;;;23.20;;
22778;SDS011;11556;51.194;3.800;2023-11-22T14:34:19;42.35;;;23.40;;